Terminal Aerodrome Forecast
Issued by NWS Duluth, MN

Home | Current Version | Previous Version | Text Only | Print | Product List | Glossary On
Versions: 1 2 3 4 5 6 7 8 9 10 11 12 13 14 15 16 17 18 19 20 21 22 23 24 25 26 27 28 29 30 31
000
FTUS43 KDLH 130815 AAD
TAFDLH
TAF AMD
KDLH 130815Z 1308/1406 12010KT 3SM -SN BR OVC009
     FM131000 11008KT 3SM -SN BR OVC006
     FM131200 10008KT 1 1/2SM -SN OVC008
      TEMPO 1313/1316 3/4SM -SN
     FM131600 06010KT 1 1/2SM -SN BR OVC010
     FM131900 03011KT 5SM -SN OVC015
     FM132300 36007KT 6SM -SN BKN025
     FM140100 35007KT P6SM BKN035=

USA.gov is the U.S. government's official web portal to all federal, state and local government web resources and services.